Al Udeid, Qatar

9:36 PM AST on July 12, 2014 (GMT +0300)
Al Waab (IDOHADOH3) Elev 69 ft | 25.26 °N, 51.46 °E | Change Station

Current weather conditions updated 2 minutes ago

Clear
Clear
97.0 °F
Feels Like 99 °F
N
2.2
Wind Variable Wind from NW
Gusts 3.8 mph

Tomorrow is forecast to be nearly the same temperature as today.

Today
High -- | Low -- °F
--% Chance of Precip.
Yesterday
High -- | Low -- °F
Precip. -- in
4:52 AM 6:28 PM
Full, 100% visible
Pressure 29.50 in
Visibility -9999.0 miles
Clouds
Heat Index 99 °F
Dew Point 63 °F
Humidity 33%
Rainfall 0.00 in
Snow Depth Not available.
UV Not available.
Pollen Not available.
Air Quality Not available.
Flu Activity Not available.
METAR OTBD 121800Z 33006KT CAVOK 38/14 Q0999 NOSIG

More Conditions Fewer Conditions

Pressure 29.50 in
Visibility -9999.0 miles
Clouds
Heat Index 99 °F
Dew Point 63 °F
Humidity 33%
Rainfall 0.00 in
Snow Depth Not available.
UV Not available.
Pollen Not available.
Air Quality Not available.
Flu Activity Not available.
METAR OTBD 121800Z 33006KT CAVOK 38/14 Q0999 NOSIG

More Conditions Fewer Conditions

10-Day Weather Forecast

Almanac

Astronomy

Jul. 12, 2014 Rise Set
Actual Time 4:52 AM AST 6:28 PM AST
Civil Twilight 4:26 AM AST 6:53 PM AST
Nautical Twilight 3:56 AM AST 7:24 PM AST
Astronomical Twilight 3:24 AM AST 7:55 PM AST
Moon 6:19 PM AST 4:37 AM AST
Length of Visible Light 14h 26m
Length of Day
13h 35m
Tomorrow will be 0m 39s shorter.
Full, 100% of the Moon is Illuminated
Today
Full
Jul 18
Last Quarter
Jul 26
New
Aug 3
First Quarter
Aug 10
Full

Today's Extremes

Country Highs Country Lows

Community

WunderPhotos

Upload Photos

1,732,911 photos uploaded!

WunderBlogs® & News

By Dr. Jeff Masters
Director of Meteorology, Weather Underground
By Kari Strenfel
Meteorologist, Weather Underground
By Christopher C. Burt
Weather Historian, Weather Underground
July 12, 2014
July 12, 2014
July 12, 2014

Nearby

Snow Depth

Not available.

Earthquake Activity

City Distance Mag. Time & Date
No recent earthquake activity has been reported nearby.
Minimum magnitude displayed is 2.5.

Coastal Water Temperatures

Place Temperature
No Stations Reporting

Nearby Weather Stations

Station Location Temp. Heat Index Dew Point Humidity Wind Precip. Elev Updated Type
Al Waab, Doha 97.0 °F 99 °F 63 °F 33% NW  at  2.2 mph 0.00 in / hr 69 ft 9:34 PM AST Normal
Wakra, Wakra 99.2 °F 99 °F 59 °F 27% NNW  at  2.5 mph 0.00 in / hr 23 ft 9:36 PM AST Rapid Fire

Show More Stations Show Fewer Stations